Nearby METAR Reports

 

NZAA - Auckland Intl Ar, New Zealand
Distance from station: SW 18km
Updated: 09/12/2021 23:30
Clear
Clear
 Wind from S
Wind: S 6 km/h
Temperature: 19°C
Dew Point: 17°C
Humidity: 88%
Barometer: 1017 hPa
Clouds: Clear
Visibility: 10 km
2021/12/09 10:30 NZAA 091030Z AUTO 18003KT 9999 NCD 19/17 Q1017 NOSIG
NZWP - Whenuapai (nz-Af, New Zealand
Distance from station: WNW 30km
Updated: 27/11/2021 17:00
NOT Current
Partly cloudy
Partly cloudy
 Wind from W
Wind: W 15 km/h
Temperature: 23°C
Dew Point: 14°C
Humidity: 57%
Barometer: 1022 hPa
Clouds: Partly cloudy
Cloud details: Partly cloudy 914 m
Partly cloudy 1219 m
2021/11/27 04:00 NZWP 270400Z 26008KT 220V300 20KM SCT030 SCT040 23/14 Q1022 NOSIG
 
NZWN - Wellington Intl, New Zealand
Distance from station: S 493km
Updated: 09/12/2021 23:30
Mostly cloudy
Mostly cloudy
 Wind from N
Wind: N 37 km/h
Temperature: 18°C
Dew Point: 17°C
Humidity: 94%
Barometer: 1014 hPa
Clouds: Mostly cloudy
Visibility: 10 km
Cloud details: Mostly cloudy 335 m
Mostly cloudy 579 m
2021/12/09 10:30 NZWN 091030Z AUTO 36020KT 9999 BKN011/// BKN019/// 18/17 Q1014 BECMG FM1200 BKN008
NZCH - Christchurch Int, New Zealand
Distance from station: SSW 759km
Updated: 09/12/2021 23:30
Mostly cloudy
Mostly cloudy
 Wind from calm
Wind: Calm
Temperature: 15°C
Dew Point: 14°C
Humidity: 94%
Barometer: 1011 hPa
Clouds: Mostly cloudy
Visibility: 10 km
Cloud details: Mostly cloudy 152 m
2021/12/09 10:30 NZCH 091030Z AUTO 00000KT 9999 BKN005/// 15/14 Q1011 BECMG BKN007
 
YSNF - Norfolk Island A, Australia
Distance from station: NW 1091km
Updated: 09/12/2021 23:30
Overcast
Overcast
 Wind from ENE
Wind: ENE 22 km/h
Temperature: 22°C
Dew Point: 20°C
Humidity: 88%
Barometer: 1015 hPa
Clouds: Overcast
Visibility: 10 km
Cloud details: Mostly cloudy 244 m
Overcast 366 m
2021/12/09 10:30 YSNF 091030Z AUTO 06012KT 9999 // BKN008 OVC012 22/20 Q1015